SBI5341 UNNT-UNOO
Flight info
| Callsign | SBI5341 |
|---|---|
| Flight time | 1h 7m |
| Altitude | 38000 |
| Route | OGAMA1J OGAMA A308 OSNAB G828 SZ A487 URUKI A844 RUMOD RUMOD5A |
| Aircraft | A20N/M-SDE2E3FGHIRWXY/LB1 |
Departure
| Time | 2026-05-01 14:24 |
|---|---|
| Airport | Novosibirsk Tolmachevo Airport (UNNT) |
Arrival
| Time | 2026-05-01 15:31 |
|---|---|
| Airport | Omsk Central Airport (UNOO) |
| Time | Latitude | Longitude | Altitude | Speed | Heading |
|---|---|---|---|---|---|
| 2026-05-01 13:52 | 55.00919 | 82.66222 | 358 ft | 0 kts | 172° |
| 2026-05-01 14:12 | 55.00919 | 82.66221 | 358 ft | 0 kts | 172° |
| 2026-05-01 14:12 | 55.00930 | 82.66219 | 358 ft | 2 kts | 171° |
| 2026-05-01 14:12 | 55.00945 | 82.66214 | 357 ft | 2 kts | 172° |
| 2026-05-01 14:13 | 55.00960 | 82.66208 | 357 ft | 2 kts | 145° |
| 2026-05-01 14:13 | 55.00968 | 82.66196 | 357 ft | 2 kts | 127° |
| 2026-05-01 14:13 | 55.00974 | 82.66164 | 357 ft | 2 kts | 86° |
| 2026-05-01 14:13 | 55.00970 | 82.66139 | 357 ft | 2 kts | 61° |
| 2026-05-01 14:14 | 55.00967 | 82.66114 | 357 ft | 2 kts | 99° |
| 2026-05-01 14:14 | 55.00972 | 82.66090 | 357 ft | 2 kts | 123° |
| 2026-05-01 14:14 | 55.00982 | 82.66071 | 357 ft | 2 kts | 148° |
| 2026-05-01 14:14 | 55.00993 | 82.66062 | 357 ft | 1 kts | 167° |
| 2026-05-01 14:15 | 55.00995 | 82.66061 | 356 ft | 1 kts | 172° |
| 2026-05-01 14:15 | 55.00999 | 82.66060 | 356 ft | 0 kts | 176° |
| 2026-05-01 14:17 | 55.00997 | 82.66061 | 356 ft | 0 kts | 176° |
| 2026-05-01 14:17 | 55.00993 | 82.66061 | 356 ft | 1 kts | 176° |
| 2026-05-01 14:17 | 55.00972 | 82.66061 | 357 ft | 4 kts | 190° |
| 2026-05-01 14:17 | 55.00946 | 82.66012 | 357 ft | 7 kts | 257° |
| 2026-05-01 14:18 | 55.00934 | 82.65894 | 358 ft | 11 kts | 260° |
| 2026-05-01 14:18 | 55.00924 | 82.65747 | 358 ft | 12 kts | 264° |
| 2026-05-01 14:18 | 55.00912 | 82.65595 | 358 ft | 12 kts | 261° |
| 2026-05-01 14:18 | 55.00902 | 82.65484 | 356 ft | 14 kts | 261° |
| 2026-05-01 14:19 | 55.00883 | 82.65232 | 354 ft | 16 kts | 267° |
| 2026-05-01 14:19 | 55.00872 | 82.65023 | 353 ft | 17 kts | 276° |
| 2026-05-01 14:19 | 55.00894 | 82.64819 | 353 ft | 17 kts | 283° |
| 2026-05-01 14:19 | 55.00921 | 82.64615 | 353 ft | 17 kts | 283° |
| 2026-05-01 14:20 | 55.00947 | 82.64407 | 353 ft | 17 kts | 283° |
| 2026-05-01 14:20 | 55.00992 | 82.64075 | 353 ft | 9 kts | 284° |
| 2026-05-01 14:20 | 55.00997 | 82.64045 | 353 ft | 1 kts | 292° |
| 2026-05-01 14:21 | 55.01003 | 82.64027 | 353 ft | 2 kts | 310° |
| 2026-05-01 14:21 | 55.01016 | 82.64017 | 353 ft | 0 kts | 346° |
| 2026-05-01 14:22 | 55.01017 | 82.64017 | 353 ft | 0 kts | 346° |
| 2026-05-01 14:22 | 55.01031 | 82.64011 | 353 ft | 4 kts | 346° |
| 2026-05-01 14:23 | 55.01078 | 82.63989 | 353 ft | 9 kts | 346° |
| 2026-05-01 14:23 | 55.01139 | 82.64001 | 353 ft | 9 kts | 53° |
| 2026-05-01 14:23 | 55.01146 | 82.64037 | 353 ft | 0 kts | 78° |
| 2026-05-01 14:23 | 55.01150 | 82.64075 | 353 ft | 22 kts | 79° |
| 2026-05-01 14:24 | 55.01217 | 82.64860 | 352 ft | 104 kts | 81° |
| 2026-05-01 14:24 | 55.01371 | 82.66473 | 430 ft | 158 kts | 82° |
| 2026-05-01 14:24 | 55.01563 | 82.68391 | 1094 ft | 163 kts | 83° |
| 2026-05-01 14:24 | 55.01746 | 82.70304 | 1906 ft | 163 kts | 84° |
| 2026-05-01 14:25 | 55.01918 | 82.72212 | 2633 ft | 164 kts | 83° |
| 2026-05-01 14:25 | 55.02128 | 82.74174 | 3344 ft | 167 kts | 73° |
| 2026-05-01 14:25 | 55.02879 | 82.75692 | 3897 ft | 182 kts | 23° |
| 2026-05-01 14:25 | 55.04159 | 82.75700 | 4355 ft | 199 kts | 336° |
| 2026-05-01 14:26 | 55.05392 | 82.74404 | 4901 ft | 214 kts | 324° |
| 2026-05-01 14:26 | 55.08070 | 82.71149 | 5892 ft | 257 kts | 326° |
| 2026-05-01 14:26 | 55.09622 | 82.69382 | 6488 ft | 276 kts | 327° |
| 2026-05-01 14:27 | 55.11242 | 82.67586 | 6855 ft | 283 kts | 327° |
| 2026-05-01 14:27 | 55.12937 | 82.65740 | 6950 ft | 285 kts | 328° |
| 2026-05-01 14:27 | 55.14618 | 82.63924 | 6959 ft | 285 kts | 328° |
| 2026-05-01 14:28 | 55.17985 | 82.60292 | 6966 ft | 285 kts | 328° |
| 2026-05-01 14:28 | 55.19669 | 82.58474 | 6985 ft | 287 kts | 328° |
| 2026-05-01 14:28 | 55.21393 | 82.56618 | 7426 ft | 297 kts | 328° |
| 2026-05-01 14:28 | 55.23107 | 82.54761 | 8533 ft | 294 kts | 326° |
| 2026-05-01 14:29 | 55.24549 | 82.52341 | 9543 ft | 291 kts | 299° |
| 2026-05-01 14:29 | 55.25283 | 82.49056 | 10462 ft | 292 kts | 284° |
| 2026-05-01 14:30 | 55.26844 | 82.38071 | 12418 ft | 325 kts | 284° |
| 2026-05-01 14:30 | 55.27443 | 82.34193 | 13258 ft | 329 kts | 284° |
| 2026-05-01 14:30 | 55.28057 | 82.30327 | 14056 ft | 333 kts | 284° |
| 2026-05-01 14:31 | 55.29331 | 82.22496 | 15627 ft | 340 kts | 285° |
| 2026-05-01 14:31 | 55.29982 | 82.18534 | 16384 ft | 343 kts | 285° |
| 2026-05-01 14:31 | 55.30646 | 82.14492 | 17128 ft | 346 kts | 285° |
| 2026-05-01 14:31 | 55.31309 | 82.10460 | 17842 ft | 350 kts | 285° |
| 2026-05-01 14:32 | 55.31983 | 82.06358 | 18543 ft | 353 kts | 285° |
| 2026-05-01 14:32 | 55.32433 | 82.03616 | 18996 ft | 355 kts | 285° |
| 2026-05-01 14:32 | 55.33345 | 81.98041 | 19891 ft | 359 kts | 285° |
| 2026-05-01 14:32 | 55.34036 | 81.93816 | 20545 ft | 362 kts | 285° |
| 2026-05-01 14:33 | 55.34731 | 81.89559 | 21197 ft | 365 kts | 285° |
| 2026-05-01 14:33 | 55.35441 | 81.85210 | 21848 ft | 368 kts | 285° |
| 2026-05-01 14:33 | 55.36142 | 81.80907 | 22473 ft | 371 kts | 285° |
| 2026-05-01 14:33 | 55.36853 | 81.76526 | 23085 ft | 374 kts | 285° |
| 2026-05-01 14:34 | 55.37563 | 81.72132 | 23692 ft | 377 kts | 285° |
| 2026-05-01 14:34 | 55.38277 | 81.67693 | 24290 ft | 380 kts | 285° |
| 2026-05-01 14:34 | 55.39000 | 81.63194 | 24855 ft | 383 kts | 285° |
| 2026-05-01 14:34 | 55.39727 | 81.58658 | 25413 ft | 386 kts | 285° |
| 2026-05-01 14:35 | 55.40448 | 81.54140 | 25944 ft | 389 kts | 285° |
| 2026-05-01 14:35 | 55.41178 | 81.49561 | 26475 ft | 391 kts | 285° |
| 2026-05-01 14:35 | 55.41912 | 81.44948 | 26988 ft | 394 kts | 285° |
| 2026-05-01 14:35 | 55.42650 | 81.40292 | 27474 ft | 396 kts | 285° |
| 2026-05-01 14:36 | 55.43393 | 81.35597 | 27939 ft | 399 kts | 285° |
| 2026-05-01 14:36 | 55.44130 | 81.30911 | 28389 ft | 401 kts | 284° |
| 2026-05-01 14:36 | 55.44875 | 81.26152 | 28816 ft | 404 kts | 284° |
| 2026-05-01 14:36 | 55.45622 | 81.21373 | 29237 ft | 406 kts | 284° |
| 2026-05-01 14:37 | 55.46370 | 81.16567 | 29649 ft | 408 kts | 284° |
| 2026-05-01 14:37 | 55.47102 | 81.11795 | 30025 ft | 409 kts | 283° |
| 2026-05-01 14:37 | 55.47798 | 81.06874 | 30387 ft | 411 kts | 282° |
| 2026-05-01 14:37 | 55.48469 | 81.01987 | 30758 ft | 412 kts | 282° |
| 2026-05-01 14:38 | 55.49134 | 80.97111 | 31141 ft | 413 kts | 282° |
| 2026-05-01 14:38 | 55.49808 | 80.92184 | 31525 ft | 413 kts | 282° |
| 2026-05-01 14:38 | 55.50473 | 80.87325 | 31990 ft | 411 kts | 282° |
| 2026-05-01 14:38 | 55.51136 | 80.82462 | 32471 ft | 408 kts | 282° |
| 2026-05-01 14:39 | 55.51797 | 80.77594 | 32925 ft | 405 kts | 282° |
| 2026-05-01 14:39 | 55.52448 | 80.72794 | 33328 ft | 404 kts | 282° |
| 2026-05-01 14:39 | 55.53098 | 80.67989 | 33696 ft | 403 kts | 282° |
| 2026-05-01 14:39 | 55.53746 | 80.63179 | 34070 ft | 402 kts | 282° |
| 2026-05-01 14:40 | 55.54390 | 80.58401 | 34449 ft | 400 kts | 282° |
| 2026-05-01 14:40 | 55.55030 | 80.53635 | 34789 ft | 400 kts | 282° |
| 2026-05-01 14:40 | 55.55665 | 80.48894 | 35119 ft | 399 kts | 282° |
| 2026-05-01 14:40 | 55.56294 | 80.44172 | 35440 ft | 398 kts | 282° |
| 2026-05-01 14:41 | 55.56927 | 80.39406 | 35713 ft | 398 kts | 282° |
| 2026-05-01 14:41 | 55.57558 | 80.34645 | 36010 ft | 397 kts | 281° |
| 2026-05-01 14:41 | 55.58184 | 80.29901 | 36321 ft | 396 kts | 281° |
| 2026-05-01 14:41 | 55.58800 | 80.25217 | 36558 ft | 397 kts | 282° |
| 2026-05-01 14:42 | 55.59432 | 80.20409 | 36758 ft | 399 kts | 281° |
| 2026-05-01 14:42 | 55.60051 | 80.15661 | 36937 ft | 400 kts | 281° |
| 2026-05-01 14:42 | 55.60680 | 80.10831 | 37144 ft | 401 kts | 281° |
| 2026-05-01 14:42 | 55.61298 | 80.06066 | 37342 ft | 402 kts | 281° |
| 2026-05-01 14:43 | 55.61832 | 80.01184 | 37497 ft | 403 kts | 277° |
| 2026-05-01 14:43 | 55.62137 | 79.96250 | 37691 ft | 403 kts | 272° |
| 2026-05-01 14:43 | 55.62142 | 79.91318 | 37837 ft | 404 kts | 267° |
| 2026-05-01 14:43 | 55.62010 | 79.86352 | 37960 ft | 405 kts | 266° |
| 2026-05-01 14:44 | 55.61860 | 79.81390 | 37971 ft | 406 kts | 266° |
| 2026-05-01 14:44 | 55.61411 | 79.66469 | 37977 ft | 406 kts | 266° |
| 2026-05-01 14:45 | 55.60962 | 79.51590 | 37979 ft | 406 kts | 266° |
| 2026-05-01 14:46 | 55.60658 | 79.41634 | 37981 ft | 406 kts | 267° |
| 2026-05-01 14:46 | 55.60183 | 79.26664 | 37980 ft | 407 kts | 265° |
| 2026-05-01 14:47 | 55.59857 | 79.16725 | 37981 ft | 407 kts | 266° |
| 2026-05-01 14:48 | 55.59360 | 79.01863 | 37980 ft | 400 kts | 266° |
| 2026-05-01 14:48 | 55.58854 | 78.87255 | 37978 ft | 395 kts | 265° |
| 2026-05-01 14:49 | 55.58149 | 78.67909 | 37913 ft | 396 kts | 265° |
| 2026-05-01 14:50 | 55.57414 | 78.48520 | 37875 ft | 396 kts | 265° |
| 2026-05-01 14:51 | 55.56842 | 78.33998 | 37872 ft | 395 kts | 265° |
| 2026-05-01 14:52 | 55.56256 | 78.19508 | 37869 ft | 395 kts | 264° |
| 2026-05-01 14:53 | 55.55655 | 78.04997 | 37876 ft | 396 kts | 264° |
| 2026-05-01 14:53 | 55.55239 | 77.95257 | 37870 ft | 396 kts | 264° |
| 2026-05-01 14:54 | 55.54818 | 77.85575 | 37872 ft | 396 kts | 264° |
| 2026-05-01 14:54 | 55.54390 | 77.75906 | 37869 ft | 397 kts | 264° |
| 2026-05-01 14:55 | 55.53954 | 77.66248 | 37868 ft | 396 kts | 264° |
| 2026-05-01 14:55 | 55.53512 | 77.56615 | 37870 ft | 396 kts | 264° |
| 2026-05-01 14:56 | 55.53060 | 77.46902 | 37868 ft | 395 kts | 264° |
| 2026-05-01 14:56 | 55.52602 | 77.37260 | 37870 ft | 396 kts | 264° |
| 2026-05-01 14:57 | 55.52138 | 77.27628 | 37873 ft | 396 kts | 264° |
| 2026-05-01 14:57 | 55.51426 | 77.13114 | 37871 ft | 395 kts | 264° |
| 2026-05-01 14:58 | 55.50945 | 77.03527 | 37871 ft | 396 kts | 264° |
| 2026-05-01 14:58 | 55.50454 | 76.93853 | 37872 ft | 395 kts | 263° |
| 2026-05-01 14:59 | 55.49961 | 76.84260 | 37872 ft | 395 kts | 262° |
| 2026-05-01 14:59 | 55.49453 | 76.74622 | 37868 ft | 395 kts | 262° |
| 2026-05-01 15:00 | 55.48675 | 76.60213 | 37828 ft | 395 kts | 262° |
| 2026-05-01 15:01 | 55.48150 | 76.50600 | 37784 ft | 394 kts | 262° |
| 2026-05-01 15:01 | 55.47618 | 76.41024 | 37755 ft | 395 kts | 262° |
| 2026-05-01 15:02 | 55.47076 | 76.31393 | 37735 ft | 394 kts | 261° |
| 2026-05-01 15:02 | 55.46528 | 76.21759 | 36971 ft | 397 kts | 261° |
| 2026-05-01 15:02 | 55.46252 | 76.16936 | 36405 ft | 398 kts | 261° |
| 2026-05-01 15:03 | 55.45972 | 76.12107 | 35855 ft | 397 kts | 261° |
| 2026-05-01 15:03 | 55.45690 | 76.07283 | 35272 ft | 396 kts | 261° |
| 2026-05-01 15:03 | 55.45406 | 76.02453 | 34670 ft | 396 kts | 261° |
| 2026-05-01 15:03 | 55.45121 | 75.97640 | 34040 ft | 397 kts | 261° |
| 2026-05-01 15:04 | 55.44834 | 75.92821 | 33413 ft | 398 kts | 261° |
| 2026-05-01 15:04 | 55.44546 | 75.88024 | 32747 ft | 399 kts | 261° |
| 2026-05-01 15:04 | 55.44252 | 75.83131 | 32043 ft | 401 kts | 261° |
| 2026-05-01 15:04 | 55.43957 | 75.78294 | 31345 ft | 403 kts | 261° |
| 2026-05-01 15:05 | 55.43657 | 75.73385 | 30661 ft | 403 kts | 261° |
| 2026-05-01 15:05 | 55.43358 | 75.68542 | 30203 ft | 398 kts | 261° |
| 2026-05-01 15:05 | 55.43058 | 75.63693 | 29725 ft | 394 kts | 261° |
| 2026-05-01 15:05 | 55.42764 | 75.58974 | 29273 ft | 390 kts | 261° |
| 2026-05-01 15:06 | 55.42467 | 75.54232 | 28795 ft | 387 kts | 261° |
| 2026-05-01 15:06 | 55.42173 | 75.49596 | 28339 ft | 383 kts | 261° |
| 2026-05-01 15:06 | 55.41877 | 75.44941 | 27872 ft | 380 kts | 261° |
| 2026-05-01 15:06 | 55.41582 | 75.40341 | 27408 ft | 377 kts | 261° |
| 2026-05-01 15:07 | 55.41288 | 75.35764 | 26953 ft | 374 kts | 261° |
| 2026-05-01 15:07 | 55.40998 | 75.31294 | 26509 ft | 371 kts | 259° |
| 2026-05-01 15:07 | 55.40704 | 75.26779 | 26059 ft | 368 kts | 259° |
| 2026-05-01 15:07 | 55.40414 | 75.22348 | 25604 ft | 366 kts | 259° |
| 2026-05-01 15:08 | 55.40123 | 75.17922 | 25179 ft | 363 kts | 259° |
| 2026-05-01 15:08 | 55.39834 | 75.13551 | 24730 ft | 361 kts | 259° |
| 2026-05-01 15:08 | 55.39542 | 75.09155 | 24280 ft | 358 kts | 259° |
| 2026-05-01 15:08 | 55.39256 | 75.04881 | 23846 ft | 356 kts | 259° |
| 2026-05-01 15:09 | 55.38963 | 75.00524 | 23408 ft | 354 kts | 259° |
| 2026-05-01 15:09 | 55.38674 | 74.96267 | 22984 ft | 351 kts | 259° |
| 2026-05-01 15:09 | 55.38385 | 74.92011 | 22554 ft | 349 kts | 259° |
| 2026-05-01 15:09 | 55.38097 | 74.87801 | 22130 ft | 347 kts | 259° |
| 2026-05-01 15:10 | 55.37810 | 74.83634 | 21711 ft | 345 kts | 259° |
| 2026-05-01 15:10 | 55.37233 | 74.75312 | 20861 ft | 341 kts | 258° |
| 2026-05-01 15:10 | 55.36947 | 74.71227 | 20442 ft | 339 kts | 258° |
| 2026-05-01 15:11 | 55.36659 | 74.67120 | 20018 ft | 338 kts | 258° |
| 2026-05-01 15:11 | 55.36081 | 74.58960 | 19176 ft | 334 kts | 258° |
| 2026-05-01 15:11 | 55.35797 | 74.54970 | 18765 ft | 332 kts | 258° |
| 2026-05-01 15:12 | 55.35509 | 74.50944 | 18351 ft | 330 kts | 258° |
| 2026-05-01 15:12 | 55.34934 | 74.42966 | 17529 ft | 327 kts | 258° |
| 2026-05-01 15:12 | 55.34650 | 74.39046 | 17125 ft | 325 kts | 258° |
| 2026-05-01 15:13 | 55.33797 | 74.27363 | 15930 ft | 320 kts | 257° |
| 2026-05-01 15:14 | 55.33226 | 74.19626 | 15138 ft | 317 kts | 257° |
| 2026-05-01 15:14 | 55.32941 | 74.15805 | 14746 ft | 315 kts | 257° |
| 2026-05-01 15:14 | 55.32376 | 74.08262 | 13970 ft | 312 kts | 257° |
| 2026-05-01 15:15 | 55.31808 | 74.00740 | 13198 ft | 309 kts | 257° |
| 2026-05-01 15:15 | 55.31241 | 73.93316 | 12438 ft | 306 kts | 257° |
| 2026-05-01 15:16 | 55.30673 | 73.85945 | 11679 ft | 303 kts | 257° |
| 2026-05-01 15:16 | 55.29733 | 73.78844 | 10922 ft | 295 kts | 244° |
| 2026-05-01 15:17 | 55.27963 | 73.72452 | 10184 ft | 290 kts | 239° |
| 2026-05-01 15:18 | 55.25286 | 73.63416 | 9657 ft | 265 kts | 239° |
| 2026-05-01 15:18 | 55.24431 | 73.60533 | 9309 ft | 265 kts | 239° |
| 2026-05-01 15:19 | 55.21921 | 73.52068 | 8367 ft | 259 kts | 239° |
| 2026-05-01 15:19 | 55.20276 | 73.46524 | 7758 ft | 255 kts | 239° |
| 2026-05-01 15:19 | 55.19459 | 73.43775 | 7456 ft | 253 kts | 240° |
| 2026-05-01 15:20 | 55.17847 | 73.38359 | 6865 ft | 250 kts | 240° |
| 2026-05-01 15:20 | 55.17051 | 73.35686 | 6573 ft | 248 kts | 240° |
| 2026-05-01 15:20 | 55.16302 | 73.33172 | 6301 ft | 247 kts | 239° |
| 2026-05-01 15:21 | 55.15509 | 73.30505 | 6011 ft | 246 kts | 239° |
| 2026-05-01 15:21 | 55.14728 | 73.27886 | 5725 ft | 244 kts | 239° |
| 2026-05-01 15:21 | 55.13945 | 73.25271 | 5439 ft | 243 kts | 239° |
| 2026-05-01 15:21 | 55.13161 | 73.22655 | 5156 ft | 242 kts | 239° |
| 2026-05-01 15:22 | 55.11567 | 73.17509 | 4591 ft | 240 kts | 235° |
| 2026-05-01 15:22 | 55.10613 | 73.15144 | 4307 ft | 239 kts | 229° |
| 2026-05-01 15:22 | 55.09534 | 73.12920 | 4021 ft | 238 kts | 227° |
| 2026-05-01 15:23 | 55.08443 | 73.10745 | 3739 ft | 237 kts | 227° |
| 2026-05-01 15:23 | 55.07370 | 73.08612 | 3461 ft | 237 kts | 227° |
| 2026-05-01 15:23 | 55.06284 | 73.06450 | 3183 ft | 236 kts | 227° |
| 2026-05-01 15:23 | 55.05229 | 73.04346 | 3121 ft | 223 kts | 227° |
| 2026-05-01 15:24 | 55.04233 | 73.02357 | 3086 ft | 212 kts | 227° |
| 2026-05-01 15:24 | 55.03252 | 73.00527 | 3028 ft | 204 kts | 216° |
| 2026-05-01 15:24 | 55.02014 | 72.99666 | 3034 ft | 182 kts | 186° |
| 2026-05-01 15:24 | 55.00845 | 72.99889 | 2969 ft | 157 kts | 169° |
| 2026-05-01 15:25 | 54.99833 | 73.00324 | 2817 ft | 143 kts | 167° |
| 2026-05-01 15:25 | 54.98874 | 73.00753 | 2740 ft | 141 kts | 167° |
| 2026-05-01 15:25 | 54.97927 | 73.01167 | 2658 ft | 141 kts | 168° |
| 2026-05-01 15:25 | 54.96973 | 73.01573 | 2563 ft | 141 kts | 168° |
| 2026-05-01 15:26 | 54.96017 | 73.01974 | 2366 ft | 141 kts | 168° |
| 2026-05-01 15:26 | 54.95079 | 73.02364 | 2138 ft | 140 kts | 168° |
| 2026-05-01 15:26 | 54.94125 | 73.02758 | 2013 ft | 139 kts | 167° |
| 2026-05-01 15:26 | 54.93313 | 73.03597 | 1980 ft | 142 kts | 126° |
| 2026-05-01 15:27 | 54.93137 | 73.05278 | 1991 ft | 144 kts | 84° |
| 2026-05-01 15:27 | 54.93391 | 73.06964 | 1997 ft | 144 kts | 74° |
| 2026-05-01 15:27 | 54.93701 | 73.08611 | 1999 ft | 144 kts | 75° |
| 2026-05-01 15:28 | 54.94219 | 73.11973 | 2001 ft | 144 kts | 79° |
| 2026-05-01 15:28 | 54.94443 | 73.13674 | 2001 ft | 143 kts | 80° |
| 2026-05-01 15:28 | 54.94661 | 73.15368 | 1993 ft | 144 kts | 80° |
| 2026-05-01 15:29 | 54.95098 | 73.18753 | 1618 ft | 143 kts | 79° |
| 2026-05-01 15:29 | 54.95318 | 73.20442 | 1409 ft | 142 kts | 79° |
| 2026-05-01 15:29 | 54.95754 | 73.23766 | 995 ft | 141 kts | 79° |
| 2026-05-01 15:30 | 54.95827 | 73.24327 | 900 ft | 141 kts | 79° |
| 2026-05-01 15:31 | 54.96766 | 73.31472 | 291 ft | 70 kts | 76° |
| 2026-05-01 15:31 | 54.96756 | 73.32097 | 288 ft | 14 kts | 169° |
| 2026-05-01 15:32 | 54.96696 | 73.32117 | 288 ft | 1 kts | 169° |
| 2026-05-01 15:32 | 54.96695 | 73.32117 | 288 ft | 0 kts | 169° |
| 2026-05-01 15:34 | 54.96659 | 73.32130 | 287 ft | 7 kts | 167° |